Time;durP1;ratioP1;P1;durP2;ratioP2;P2;SDS_P1;SDS_P2;PMS_P1;PMS_P2;Temp;Humidity;BMP_temperature;BMP_pressure;BME280_temperature;BME280_humidity;BME280_pressure;Samples;Min_cycle;Max_cycle;Signal;HPM_P1;HPM_P2
2022/04/28 00:01:19;;;;;;;4.03;3.67;;;;;;;6.30;84.98;100138.19;8193373;28;20074;-71
2022/04/28 00:05:21;;;;;;;3.83;3.37;;;;;;;6.28;84.72;100129.50;8179767;28;20047;-72
2022/04/28 00:09:22;;;;;;;5.03;3.55;;;;;;;6.28;84.93;100129.50;8188669;28;20047;-71
2022/04/28 00:13:24;;;;;;;4.07;3.67;;;;;;;6.16;84.44;100132.69;8190358;28;20047;-71
2022/04/28 00:17:25;;;;;;;4.87;3.10;;;;;;;6.09;84.81;100133.34;8157589;29;20043;-71
2022/04/28 00:21:27;;;;;;;3.57;3.17;;;;;;;6.01;84.58;100133.16;8186341;29;20417;-71
2022/04/28 00:25:29;;;;;;;3.67;3.40;;;;;;;5.95;84.83;100129.56;8186046;28;20452;-71
2022/04/28 00:29:30;;;;;;;3.33;3.03;;;;;;;5.86;85.01;100137.00;8183757;29;20090;-71
2022/04/28 00:33:31;;;;;;;3.97;3.57;;;;;;;5.78;84.77;100131.66;8167657;28;20119;-71
2022/04/28 00:37:33;;;;;;;3.27;2.97;;;;;;;5.72;84.87;100131.47;8140839;29;20094;-71
2022/04/28 00:41:34;;;;;;;3.77;3.40;;;;;;;5.62;85.26;100130.38;8140624;29;20031;-70
2022/04/28 00:45:36;;;;;;;3.90;3.07;;;;;;;5.63;85.52;100120.94;8154121;29;20718;-70
2022/04/28 00:54:00;;;;;;;5.30;3.10;;;;;;;5.60;85.62;100126.00;8149671;29;20064;-71
2022/04/28 00:58:02;;;;;;;7.07;3.20;;;;;;;5.53;85.28;100130.09;8139568;29;20421;-71
2022/04/28 01:02:10;;;;;;;3.78;3.10;;;;;;;5.46;85.55;100126.50;8153528;29;20066;-71
2022/04/28 01:06:13;;;;;;;3.53;2.87;;;;;;;5.43;85.64;100128.13;8139497;29;20051;-70
2022/04/28 01:10:15;;;;;;;4.53;3.17;;;;;;;5.31;85.54;100130.34;8138672;29;20548;-70
2022/04/28 01:14:16;;;;;;;2.90;2.63;;;;;;;5.29;85.59;100126.84;8137234;29;20047;-70
2022/04/28 01:18:18;;;;;;;4.67;3.17;;;;;;;5.23;85.90;100124.09;8148814;29;20082;-70
2022/04/28 01:22:20;;;;;;;3.42;3.03;;;;;;;5.20;85.70;100129.13;8154353;29;20082;-70
2022/04/28 01:26:23;;;;;;;4.43;3.20;;;;;;;5.14;85.97;100127.28;8156286;29;20452;-71
2022/04/28 01:30:26;;;;;;;3.73;3.03;;;;;;;5.10;86.16;100125.44;8139182;29;20150;-71
2022/04/28 01:34:27;;;;;;;3.35;2.92;;;;;;;5.08;86.40;100127.09;8131711;29;20062;-70
2022/04/28 01:38:29;;;;;;;3.00;2.80;;;;;;;5.06;86.37;100126.19;8140323;29;20044;-71
2022/04/28 01:42:30;;;;;;;3.30;2.83;;;;;;;5.03;86.17;100128.69;8155659;29;20519;-71
2022/04/28 01:46:32;;;;;;;4.37;2.93;;;;;;;5.01;86.59;100132.88;8121937;29;20079;-70
2022/04/28 01:50:33;;;;;;;3.47;3.17;;;;;;;4.89;86.29;100133.41;8157632;29;20533;-71
2022/04/28 01:58:55;;;;;;;2.70;2.50;;;;;;;4.80;86.23;100148.56;8155471;29;20071;-71
2022/04/28 02:02:56;;;;;;;4.23;3.33;;;;;;;4.80;86.47;100144.28;8155912;29;20036;-71
2022/04/28 02:06:59;;;;;;;4.43;3.57;;;;;;;4.77;86.47;100139.03;8156515;29;20051;-71
2022/04/28 02:11:00;;;;;;;3.60;3.03;;;;;;;4.72;86.25;100147.47;8160636;29;20855;-71
2022/04/28 02:15:02;;;;;;;3.27;2.93;;;;;;;4.68;85.79;100148.19;8142776;29;20134;-71
2022/04/28 02:19:03;;;;;;;4.35;3.95;;;;;;;4.64;86.10;100146.31;8159816;29;20110;-71
2022/04/28 02:23:05;;;;;;;4.37;3.37;;;;;;;4.61;86.21;100146.22;8158948;29;20043;-71
2022/04/28 02:27:08;;;;;;;5.73;3.63;;;;;;;4.51;86.32;100140.81;8160769;29;20055;-70
2022/04/28 02:31:09;;;;;;;;;;;;;;;4.41;86.25;100145.59;8157272;29;20114;-71
2022/04/28 02:35:11;;;;;;;3.80;3.33;;;;;;;4.38;86.08;100154.09;8175701;29;19922;-71
2022/04/28 02:39:17;;;;;;;4.40;3.20;;;;;;;4.35;86.63;100145.41;8171099;29;20428;-71
2022/04/28 02:43:19;;;;;;;4.50;3.40;;;;;;;4.31;86.82;100153.81;8190373;29;20049;-71
2022/04/28 02:47:20;;;;;;;4.43;3.17;;;;;;;4.29;86.92;100147.75;8192247;29;20051;-71
2022/04/28 02:51:22;;;;;;;5.00;3.57;;;;;;;4.24;87.01;100148.50;8174044;29;20075;-71
2022/04/28 02:55:23;;;;;;;4.53;3.00;;;;;;;4.23;86.90;100154.47;8168968;29;20062;-71
2022/04/28 02:59:24;;;;;;;5.53;3.53;;;;;;;4.13;86.60;100148.94;8184464;29;20483;-71
2022/04/28 03:03:26;;;;;;;4.20;3.10;;;;;;;4.08;86.55;100150.50;8172262;29;20039;-71
2022/04/28 03:11:48;;;;;;;4.43;3.63;;;;;;;4.08;86.86;100153.06;8178113;29;20040;-71
2022/04/28 03:15:50;;;;;;;4.40;3.33;;;;;;;4.10;86.87;100154.00;8178331;28;20105;-71
2022/04/28 03:19:51;;;;;;;4.20;3.07;;;;;;;4.08;87.08;100153.06;8192414;29;20058;-71
2022/04/28 03:23:53;;;;;;;4.43;3.30;;;;;;;4.04;86.64;100158.94;8170288;29;20558;-71
2022/04/28 03:27:56;;;;;;;4.87;3.30;;;;;;;4.00;86.79;100172.50;8183906;29;20448;-71
2022/04/28 03:31:57;;;;;;;6.57;3.10;;;;;;;3.96;86.70;100166.41;8186869;29;20035;-71
2022/04/28 03:35:59;;;;;;;4.87;3.27;;;;;;;3.94;86.86;100168.00;8165650;29;20150;-71
2022/04/28 03:40:00;;;;;;;8.10;3.20;;;;;;;3.91;86.88;100173.91;8159432;29;20073;-71
2022/04/28 03:44:02;;;;;;;8.93;3.40;;;;;;;3.85;86.72;100172.84;8159164;29;20058;-70
2022/04/28 03:48:04;;;;;;;4.63;3.33;;;;;;;3.79;86.97;100173.50;8157841;29;20515;-71
2022/04/28 03:52:06;;;;;;;4.55;2.90;;;;;;;3.72;87.37;100171.53;8152758;29;20372;-71
2022/04/28 03:56:08;;;;;;;4.60;3.40;;;;;;;3.68;86.99;100179.97;8165935;29;20427;-71
2022/04/28 04:00:09;;;;;;;5.10;3.37;;;;;;;3.63;86.76;100191.75;8159123;29;20067;-71
2022/04/28 04:04:11;;;;;;;3.53;3.22;;;;;;;3.60;86.84;100184.81;8158238;29;20070;-71
2022/04/28 04:08:13;;;;;;;5.30;3.30;;;;;;;3.58;86.88;100188.13;8160382;29;20054;-71
2022/04/28 04:12:15;;;;;;;4.43;3.05;;;;;;;3.58;87.32;100186.44;8143783;29;20050;-71
2022/04/28 04:16:16;;;;;;;4.60;3.10;;;;;;;3.56;87.71;100189.78;8160612;29;20058;-71
2022/04/28 04:20:18;;;;;;;3.90;3.50;;;;;;;3.51;87.18;100186.19;8161259;29;20651;-71
2022/04/28 04:24:20;;;;;;;5.40;2.97;;;;;;;3.47;87.56;100190.31;8157765;29;20681;-71
2022/04/28 04:28:21;;;;;;;5.75;2.97;;;;;;;3.40;87.18;100192.59;8156890;29;20442;-71
2022/04/28 04:32:25;;;;;;;5.80;3.77;;;;;;;3.38;87.13;100197.69;8159885;29;20058;-71
2022/04/28 04:36:27;;;;;;;3.83;3.17;;;;;;;3.41;87.64;100202.03;8184890;29;20070;-71
2022/04/28 04:40:28;;;;;;;3.50;3.13;;;;;;;3.41;87.78;100218.34;8187950;29;20047;-72
2022/04/28 04:44:30;;;;;;;7.67;3.30;;;;;;;3.47;87.63;100221.13;8188218;29;20052;-71
2022/04/28 04:48:31;;;;;;;5.07;4.10;;;;;;;3.52;88.07;100227.31;8167981;29;20043;-71
2022/04/28 04:52:34;;;;;;;7.00;3.40;;;;;;;3.56;88.26;100229.16;8181909;29;20134;-72
2022/04/28 04:56:36;;;;;;;3.55;3.25;;;;;;;3.64;88.37;100234.59;8188252;29;20138;-71
2022/04/28 05:00:37;;;;;;;3.13;2.83;;;;;;;3.72;88.89;100233.16;8189141;29;20051;-72
2022/04/28 05:04:39;;;;;;;4.10;3.27;;;;;;;3.82;88.73;100237.84;8185207;29;20636;-71
2022/04/28 05:08:40;;;;;;;7.73;3.93;;;;;;;3.93;88.46;100246.78;8170354;29;20689;-71
2022/04/28 05:12:42;;;;;;;4.77;3.83;;;;;;;4.06;88.73;100249.78;8191038;29;20058;-71
2022/04/28 05:16:43;;;;;;;4.67;3.77;;;;;;;4.18;88.03;100245.09;8176916;28;20051;-71
2022/04/28 05:20:45;;;;;;;4.97;3.83;;;;;;;4.32;87.77;100246.44;8168902;29;20082;-71
2022/04/28 05:24:46;;;;;;;10.03;4.63;;;;;;;4.47;87.93;100252.09;8179156;29;20043;-72
2022/04/28 05:28:48;;;;;;;7.13;4.37;;;;;;;4.69;87.63;100245.97;8172097;29;20043;-73
2022/04/28 05:32:49;;;;;;;13.43;4.50;;;;;;;4.91;87.91;100254.38;8166353;29;20035;-71
2022/04/28 05:36:51;;;;;;;7.90;5.03;;;;;;;5.15;87.72;100256.03;8181392;28;20138;-71
2022/04/28 05:40:54;;;;;;;6.37;4.20;;;;;;;6.40;85.38;100263.94;8167290;29;20044;-71
2022/04/28 05:49:15;;;;;;;5.43;3.95;;;;;;;7.77;80.68;100266.34;8184090;29;20047;-72
2022/04/28 05:53:17;;;;;;;6.72;4.00;;;;;;;8.03;79.27;100267.72;8183058;29;20662;-72
2022/04/28 05:57:18;;;;;;;5.28;3.95;;;;;;;8.27;78.38;100269.94;8186859;29;20090;-72
2022/04/28 06:01:20;;;;;;;5.67;2.93;;;;;;;8.64;77.56;100268.91;8182310;29;20079;-71
2022/04/28 06:05:22;;;;;;;9.13;3.50;;;;;;;9.23;76.58;100278.50;8150721;29;20043;-72
2022/04/28 06:09:24;;;;;;;5.80;3.83;;;;;;;9.93;74.48;100275.16;8184224;29;20106;-72
2022/04/28 06:13:26;;;;;;;4.07;3.30;;;;;;;10.54;72.86;100291.44;8149288;29;20106;-72
2022/04/28 06:17:27;;;;;;;5.67;2.63;;;;;;;11.18;71.05;100288.56;8165375;28;20451;-72
2022/04/28 06:21:29;;;;;;;3.60;2.73;;;;;;;11.78;68.76;100287.19;8176652;29;20078;-72
2022/04/28 06:25:30;;;;;;;5.00;2.53;;;;;;;12.35;66.07;100278.75;8183561;29;20051;-72
2022/04/28 06:29:32;;;;;;;11.60;2.97;;;;;;;12.87;64.16;100291.00;8167468;29;20047;-73
2022/04/28 06:33:34;;;;;;;6.80;2.83;;;;;;;13.35;62.35;100291.91;8162747;29;20711;-73
2022/04/28 06:37:35;;;;;;;7.80;3.20;;;;;;;13.73;60.78;100295.31;8169786;28;20053;-74
2022/04/28 06:41:37;;;;;;;6.72;2.75;;;;;;;14.06;59.55;100291.72;8181877;29;20131;-74
2022/04/28 06:46:11;;;;;;;9.23;3.03;;;;;;;14.40;58.22;100300.28;8171555;28;20054;-73
2022/04/28 06:50:00;;;;;;;4.57;2.25;;;;;;;14.73;56.73;100304.47;8185437;29;20047;-74
2022/04/28 06:54:02;;;;;;;6.32;2.63;;;;;;;15.01;56.49;100304.25;8170287;29;20093;-73
2022/04/28 06:58:04;;;;;;;3.33;2.22;;;;;;;15.32;54.95;100297.88;8179134;29;20413;-73
2022/04/28 07:02:06;;;;;;;2.80;2.08;;;;;;;15.59;53.62;100304.63;8176630;29;20054;-73
2022/04/28 07:06:08;;;;;;;1.90;1.80;;;;;;;15.70;52.25;100301.91;8158738;29;20345;-73
2022/04/28 07:10:09;;;;;;;3.43;2.00;;;;;;;15.88;51.35;100303.44;8160489;29;20062;-72
2022/04/28 07:14:11;;;;;;;2.13;1.60;;;;;;;16.17;50.71;100301.38;8176400;29;20106;-72
2022/04/28 07:18:12;;;;;;;2.67;1.40;;;;;;;16.36;49.68;100311.59;8188841;29;21170;-73
2022/04/28 07:22:14;;;;;;;1.60;1.50;;;;;;;16.72;48.69;100307.63;8171374;29;20134;-73
2022/04/28 07:26:15;;;;;;;2.75;1.45;;;;;;;16.98;47.38;100318.59;8192541;29;20606;-72
2022/04/28 07:30:18;;;;;;;2.15;1.42;;;;;;;17.28;46.91;100316.38;8188062;29;20079;-73
2022/04/28 07:34:19;;;;;;;2.42;1.55;;;;;;;17.40;45.75;100317.00;8176752;29;20100;-72
2022/04/28 07:38:22;;;;;;;3.23;1.50;;;;;;;17.69;44.76;100324.41;8175376;29;20070;-72
2022/04/28 07:42:23;;;;;;;2.80;1.70;;;;;;;17.89;43.68;100318.78;8163471;29;20044;-72
2022/04/28 07:46:25;;;;;;;1.60;1.50;;;;;;;18.12;43.91;100329.69;8164846;29;20077;-72
2022/04/28 07:50:29;;;;;;;1.60;1.50;;;;;;;18.31;42.81;100324.03;8160184;29;20055;-72
2022/04/28 07:54:30;;;;;;;1.58;1.42;;;;;;;18.53;41.10;100329.75;8164586;29;20058;-72
2022/04/28 07:58:32;;;;;;;5.47;1.25;;;;;;;18.76;40.96;100324.84;8173483;29;20127;-72
2022/04/28 08:02:36;;;;;;;5.00;1.10;;;;;;;19.06;40.44;100335.56;8165704;29;20050;-72
2022/04/28 08:06:37;;;;;;;1.75;1.08;;;;;;;19.25;39.25;100334.22;8178283;29;20086;-72
2022/04/28 08:10:39;;;;;;;2.03;1.08;;;;;;;19.28;38.12;100332.38;8179379;29;20703;-72
2022/04/28 08:14:40;;;;;;;2.00;1.00;;;;;;;19.25;37.70;100339.50;8192432;28;20055;-72
2022/04/28 08:18:49;;;;;;;1.45;1.00;;;;;;;19.41;37.73;100329.44;8178408;29;20440;-72
2022/04/28 08:22:50;;;;;;;1.52;1.00;;;;;;;19.49;37.17;100330.97;8177190;29;20833;-71
2022/04/28 08:26:54;;;;;;;2.72;1.20;;;;;;;19.60;37.13;100342.13;8181266;29;20048;-72
2022/04/28 08:30:56;;;;;;;0.90;0.90;;;;;;;19.71;35.87;100338.34;8177527;28;20146;-72
2022/04/28 08:34:57;;;;;;;0.77;0.73;;;;;;;19.94;37.17;100341.22;8179186;28;20055;-72
2022/04/28 08:38:59;;;;;;;1.67;0.77;;;;;;;20.10;36.16;100336.38;8179654;29;20393;-72
2022/04/28 08:43:04;;;;;;;4.47;1.20;;;;;;;20.29;35.92;100334.97;8176035;29;20058;-72
2022/04/28 08:47:06;;;;;;;1.00;0.90;;;;;;;20.39;34.68;100339.03;8172645;28;20078;-72
2022/04/28 08:51:08;;;;;;;;;;;;;;;20.56;34.85;100338.56;8151269;29;20047;-72
2022/04/28 08:55:11;;;;;;;1.30;0.90;;;;;;;20.69;34.06;100342.59;8156522;29;19927;-72
2022/04/28 08:59:16;;;;;;;0.80;0.80;;;;;;;20.71;33.32;100343.41;8150508;29;20075;-73
2022/04/28 09:03:17;;;;;;;1.55;1.10;;;;;;;20.75;33.18;100344.16;8155296;29;20730;-73
2022/04/28 09:07:32;;;;;;;3.13;1.23;;;;;;;20.84;32.78;100333.31;8171058;29;20842;-72
2022/04/28 09:11:37;;;;;;;1.15;0.90;;;;;;;20.85;32.85;100342.13;8152380;29;20048;-73
2022/04/28 09:15:38;;;;;;;1.10;1.00;;;;;;;20.90;32.92;100329.63;8152117;29;20366;-72
2022/04/28 09:19:40;;;;;;;1.25;1.10;;;;;;;21.07;32.91;100335.22;8151215;29;20052;-73
2022/04/28 09:23:42;;;;;;;1.88;0.88;;;;;;;21.22;32.83;100333.88;8158872;29;20043;-72
2022/04/28 09:27:47;;;;;;;0.98;0.75;;;;;;;21.28;32.41;100333.69;8150228;29;20039;-72
2022/04/28 09:31:51;;;;;;;2.15;0.90;;;;;;;21.25;31.07;100325.88;8153590;29;20040;-72
2022/04/28 09:36:14;;;;;;;2.90;0.82;;;;;;;21.33;30.56;100329.09;8148682;29;20071;-72
2022/04/28 09:44:41;;;;;;;2.35;0.77;;;;;;;21.40;28.52;100320.94;8154353;29;20071;-72
2022/04/28 09:48:43;;;;;;;3.42;0.93;;;;;;;21.48;29.76;100338.31;8153756;29;20435;-71
2022/04/28 09:52:52;;;;;;;1.33;0.80;;;;;;;21.53;28.82;100323.16;8134765;29;20472;-72
2022/04/28 09:56:54;;;;;;;1.02;0.70;;;;;;;21.49;28.88;100321.53;8154055;29;20048;-72
2022/04/28 10:01:03;;;;;;;0.75;0.60;;;;;;;21.64;28.90;100319.22;8146909;29;20082;-72
2022/04/28 10:05:07;;;;;;;0.80;0.70;;;;;;;21.78;28.72;100326.69;8153054;29;20058;-71
2022/04/28 10:09:11;;;;;;;1.55;0.70;;;;;;;21.63;27.70;100336.00;8154038;29;20047;-72
2022/04/28 10:13:13;;;;;;;2.53;0.55;;;;;;;21.53;28.12;100337.22;8151419;29;20057;-72
2022/04/28 10:17:25;;;;;;;1.40;0.80;;;;;;;21.48;28.21;100314.53;8151142;29;20191;-72
2022/04/28 10:21:40;;;;;;;1.17;0.80;;;;;;;21.68;29.55;100333.19;8146884;29;20090;-72
2022/04/28 10:35:04;;;;;;;2.22;0.73;;;;;;;22.25;29.61;100324.09;8167767;29;20110;-73
2022/04/28 10:39:07;;;;;;;;;;;;;;;22.34;29.18;100304.38;8166002;29;20051;-73
2022/04/28 10:43:43;;;;;;;1.33;0.70;;;;;;;22.49;29.39;100304.66;8163564;29;19959;-72
2022/04/28 10:47:44;;;;;;;2.40;0.50;;;;;;;22.56;27.74;100299.97;8145560;29;20078;-72
2022/04/28 10:51:46;;;;;;;3.33;0.80;;;;;;;22.56;28.91;100306.13;8177302;29;20628;-72
2022/04/28 10:55:49;;;;;;;1.27;0.73;;;;;;;22.65;29.65;100298.78;8175340;29;20082;-72
2022/04/28 10:59:51;;;;;;;1.02;0.80;;;;;;;22.60;27.13;100291.00;8175071;29;20051;-72
2022/04/28 11:03:58;;;;;;;0.70;0.50;;;;;;;22.72;28.67;100289.66;8166605;29;20047;-72
2022/04/28 11:08:01;;;;;;;1.67;0.65;;;;;;;22.94;28.43;100297.63;8166874;29;20047;-72
2022/04/28 11:12:07;;;;;;;1.35;0.70;;;;;;;23.05;27.79;100292.75;8176127;29;20494;-72
2022/04/28 11:16:10;;;;;;;0.65;0.65;;;;;;;23.01;27.72;100297.31;8160123;29;20059;-71
2022/04/28 11:20:19;;;;;;;0.95;0.52;;;;;;;22.91;26.60;100288.00;8178806;29;20058;-71
2022/04/28 11:24:20;;;;;;;1.67;0.60;;;;;;;22.99;27.68;100291.22;8164304;29;20756;-71
2022/04/28 11:28:22;;;;;;;5.38;0.65;;;;;;;23.13;27.86;100280.03;8177387;29;20057;-71
2022/04/28 11:32:24;;;;;;;1.13;0.60;;;;;;;23.15;26.88;100283.47;8178304;29;20047;-71
2022/04/28 11:36:28;;;;;;;2.25;0.60;;;;;;;23.16;26.88;100293.16;8182129;28;20110;-71
2022/04/28 11:40:35;;;;;;;0.75;0.55;;;;;;;23.27;25.87;100282.97;8185797;29;20043;-71
2022/04/28 11:44:57;;;;;;;5.80;0.60;;;;;;;23.33;26.12;100277.41;8185021;29;20142;-71
2022/04/28 11:48:58;;;;;;;1.05;0.60;;;;;;;23.55;26.87;100279.16;8182360;29;20082;-72
2022/04/28 11:53:05;;;;;;;1.27;0.60;;;;;;;23.63;26.77;100275.25;8156905;29;20053;-71
2022/04/28 11:57:11;;;;;;;0.63;0.52;;;;;;;23.83;25.78;100276.16;8178985;29;20056;-71
2022/04/28 12:01:13;;;;;;;0.75;0.50;;;;;;;23.84;26.45;100267.28;8176255;29;20134;-71
2022/04/28 12:05:18;;;;;;;2.00;0.60;;;;;;;23.99;26.91;100272.75;8177206;29;20745;-71
2022/04/28 12:22:37;;;;;;;2.92;0.60;;;;;;;24.14;26.35;100254.41;8183035;28;20143;-72
2022/04/28 12:26:42;;;;;;;2.33;0.60;;;;;;;24.26;25.71;100245.88;8178139;29;20058;-72
2022/04/28 12:30:53;;;;;;;2.22;0.60;;;;;;;24.15;25.28;100250.81;8168355;29;20155;-71
2022/04/28 12:35:03;;;;;;;1.38;0.70;;;;;;;24.26;25.74;100254.72;8168863;28;20083;-71
2022/04/28 12:39:04;;;;;;;1.33;0.50;;;;;;;24.27;25.88;100259.09;8151521;29;20445;-71
2022/04/28 12:43:07;;;;;;;0.57;0.52;;;;;;;24.35;25.31;100256.94;8144421;29;20048;-71
2022/04/28 12:47:09;;;;;;;1.67;0.60;;;;;;;24.25;25.39;100254.78;8150196;29;20066;-72
2022/04/28 12:51:19;;;;;;;3.08;0.70;;;;;;;24.30;25.05;100250.16;8136132;29;20079;-72
2022/04/28 12:55:22;;;;;;;1.73;0.50;;;;;;;24.25;24.62;100254.78;8147358;29;20090;-71
2022/04/28 12:59:27;;;;;;;4.57;0.70;;;;;;;24.37;24.55;100255.06;8131458;29;20048;-71
2022/04/28 13:03:29;;;;;;;1.90;0.60;;;;;;;24.21;24.72;100243.44;8147176;29;20059;-71
2022/04/28 13:07:31;;;;;;;;;;;;;;;24.23;24.69;100238.03;8147429;29;20048;-72
2022/04/28 13:11:35;;;;;;;2.05;0.70;;;;;;;24.17;25.10;100233.91;8145092;29;19926;-71
2022/04/28 13:15:36;;;;;;;1.90;0.50;;;;;;;24.24;25.10;100232.69;8149137;29;20052;-72
2022/04/28 13:19:38;;;;;;;1.25;0.70;;;;;;;24.34;24.22;100225.16;8141338;29;20561;-72
2022/04/28 13:23:40;;;;;;;2.50;0.50;;;;;;;24.21;23.78;100224.84;8126139;29;20130;-71
2022/04/28 13:27:42;;;;;;;2.47;0.60;;;;;;;24.24;24.35;100232.69;8153457;29;20155;-71
2022/04/28 13:31:43;;;;;;;2.47;0.50;;;;;;;24.20;23.86;100212.50;8144491;29;20062;-71
2022/04/28 13:35:46;;;;;;;2.95;0.60;;;;;;;24.15;23.19;100218.97;8168372;28;20061;-72
2022/04/28 13:39:48;;;;;;;2.85;0.60;;;;;;;24.17;23.72;100227.72;8176775;29;20146;-72
2022/04/28 13:43:49;;;;;;;0.55;0.50;;;;;;;24.08;24.09;100223.72;8155926;29;20685;-72
2022/04/28 13:47:51;;;;;;;1.33;0.70;;;;;;;24.10;23.37;100208.59;8161825;28;20435;-73
2022/04/28 13:51:52;;;;;;;4.17;0.60;;;;;;;24.05;23.19;100197.31;8154480;28;20130;-72
2022/04/28 13:55:58;;;;;;;1.27;0.50;;;;;;;24.01;23.41;100201.91;8173319;28;20093;-72
2022/04/28 14:00:00;;;;;;;1.00;0.60;;;;;;;23.83;22.76;100197.44;8174953;28;20457;-72
2022/04/28 14:04:03;;;;;;;3.00;0.63;;;;;;;23.71;21.97;100196.25;8186992;28;20054;-73
2022/04/28 14:08:04;;;;;;;0.88;0.50;;;;;;;23.78;23.36;100194.16;8187354;28;20154;-71
2022/04/28 14:12:06;;;;;;;1.27;0.65;;;;;;;23.91;23.45;100200.63;8186976;28;20055;-71
2022/04/28 14:16:07;;;;;;;0.88;0.60;;;;;;;23.89;22.93;100193.69;8188008;28;20150;-71
2022/04/28 14:20:10;;;;;;;0.57;0.57;;;;;;;23.94;23.17;100181.91;8190758;28;20418;-71
2022/04/28 14:24:12;;;;;;;1.05;0.60;;;;;;;23.93;23.93;100176.69;8165079;28;20177;-71
2022/04/28 14:28:13;;;;;;;1.02;0.60;;;;;;;24.15;23.50;100176.53;8174823;28;20050;-71
2022/04/28 14:32:15;;;;;;;1.83;0.60;;;;;;;24.18;23.48;100171.91;8165346;28;20046;-71
2022/04/28 14:36:17;;;;;;;0.55;0.50;;;;;;;24.21;24.04;100174.41;8156826;29;20113;-71
2022/04/28 14:40:18;;;;;;;0.52;0.50;;;;;;;24.41;23.85;100170.84;8158004;29;20083;-71
2022/04/28 14:44:20;;;;;;;1.55;0.60;;;;;;;24.38;23.05;100168.34;8152023;29;20713;-71
2022/04/28 14:48:22;;;;;;;9.63;0.63;;;;;;;24.40;23.25;100167.31;8136018;29;20067;-71
2022/04/28 14:52:33;;;;;;;1.35;0.52;;;;;;;24.38;22.99;100176.28;8142730;29;20151;-71
2022/04/28 14:56:34;;;;;;;2.80;0.73;;;;;;;24.49;23.15;100178.44;8153713;29;20066;-70
2022/04/28 15:00:36;;;;;;;1.92;0.55;;;;;;;24.52;22.47;100170.31;8119446;29;20075;-69
2022/04/28 15:04:38;;;;;;;0.80;0.60;;;;;;;24.46;22.58;100175.94;8149911;29;20040;-71
2022/04/28 15:08:41;;;;;;;1.45;0.50;;;;;;;24.62;23.01;100172.47;8152041;29;20055;-72
2022/04/28 15:12:43;;;;;;;1.77;0.50;;;;;;;24.73;22.89;100179.00;8155572;29;20058;-72
2022/04/28 15:16:47;;;;;;;0.73;0.52;;;;;;;24.84;22.81;100190.81;8159435;29;20524;-71
2022/04/28 15:20:49;;;;;;;1.00;0.55;;;;;;;24.83;22.70;100174.97;8159035;29;20048;-71
2022/04/28 15:24:50;;;;;;;1.00;0.60;;;;;;;24.81;21.77;100176.84;8155765;29;20048;-71
2022/04/28 15:28:52;;;;;;;1.08;0.80;;;;;;;24.88;23.15;100171.13;8155134;29;20057;-71
2022/04/28 15:32:53;;;;;;;0.90;0.50;;;;;;;24.89;24.07;100172.00;8162907;29;20075;-71
2022/04/28 15:36:54;;;;;;;5.10;0.60;;;;;;;24.88;24.30;100157.84;8164216;29;20764;-71
2022/04/28 15:41:00;;;;;;;0.60;0.60;;;;;;;24.90;24.17;100155.97;8163568;29;20058;-72
2022/04/28 15:45:02;;;;;;;2.08;0.50;;;;;;;24.75;23.99;100153.22;8156580;29;20270;-71
2022/04/28 15:49:06;;;;;;;2.85;0.73;;;;;;;24.70;24.28;100164.94;8160202;29;20139;-72
2022/04/28 15:53:07;;;;;;;1.30;0.60;;;;;;;24.81;23.86;100155.59;8159782;29;21166;-72
2022/04/28 15:57:09;;;;;;;1.08;0.60;;;;;;;24.90;24.26;100152.44;8161958;29;20051;-71
2022/04/28 16:01:11;;;;;;;0.60;0.60;;;;;;;24.84;23.56;100145.66;8129024;29;20047;-71
2022/04/28 16:05:13;;;;;;;3.17;0.70;;;;;;;24.95;24.30;100156.59;8157630;29;20043;-71
2022/04/28 16:09:15;;;;;;;0.80;0.80;;;;;;;24.88;23.93;100152.53;8142980;29;20729;-70
2022/04/28 16:13:16;;;;;;;;;;;;;;;24.77;24.01;100154.00;8137984;29;20618;-71
2022/04/28 16:17:17;;;;;;;0.60;0.60;;;;;;;24.71;24.20;100147.22;8156707;29;19937;-72
2022/04/28 16:21:20;;;;;;;3.33;0.80;;;;;;;24.35;24.84;100149.91;8155840;29;20047;-71
2022/04/28 16:25:22;;;;;;;0.93;0.80;;;;;;;23.82;24.87;100145.34;8159396;29;20066;-71
2022/04/28 16:29:24;;;;;;;0.93;0.80;;;;;;;23.37;26.08;100142.97;8158410;29;20856;-71
2022/04/28 16:33:25;;;;;;;0.82;0.73;;;;;;;22.87;26.62;100136.31;8162318;29;20086;-71
2022/04/28 16:37:27;;;;;;;0.95;0.70;;;;;;;22.51;27.60;100138.69;8156983;29;20527;-71
2022/04/28 16:41:28;;;;;;;4.20;1.02;;;;;;;22.12;28.21;100146.47;8154959;29;20679;-71
2022/04/28 16:45:30;;;;;;;3.30;1.00;;;;;;;21.79;28.00;100134.53;8145768;29;20601;-71
2022/04/28 16:49:31;;;;;;;1.95;0.90;;;;;;;21.54;28.36;100142.50;8150234;29;20054;-71
2022/04/28 16:53:33;;;;;;;6.07;0.90;;;;;;;21.32;29.55;100155.66;8149764;29;20178;-71
2022/04/28 16:57:35;;;;;;;;;;;;;;;21.06;29.63;100148.66;8152544;29;20615;-71
2022/04/28 17:01:58;;;;;;;9.10;0.80;;;;;;;20.86;31.14;100153.75;8147330;29;19940;-71
2022/04/28 17:06:00;;;;;;;2.40;0.88;;;;;;;20.69;31.41;100159.59;8153237;29;20048;-71
2022/04/28 17:10:02;;;;;;;1.35;0.80;;;;;;;20.50;31.22;100159.34;8159197;29;20051;-71
2022/04/28 17:14:05;;;;;;;1.38;0.80;;;;;;;20.38;31.59;100154.44;8155013;29;20098;-70
2022/04/28 17:18:09;;;;;;;2.85;0.80;;;;;;;20.18;32.81;100155.06;8159131;29;20078;-71
2022/04/28 17:22:16;;;;;;;2.70;0.90;;;;;;;20.02;31.81;100161.72;8170924;29;20553;-71
2022/04/28 17:26:17;;;;;;;3.17;0.93;;;;;;;19.90;32.20;100160.31;8160149;28;20146;-71
2022/04/28 17:30:19;;;;;;;1.70;0.93;;;;;;;19.77;32.62;100169.53;8155408;29;20059;-71
2022/04/28 17:34:20;;;;;;;1.48;0.70;;;;;;;19.61;32.16;100158.56;8166582;28;20507;-72
2022/04/28 17:38:23;;;;;;;3.63;0.60;;;;;;;19.46;33.22;100161.59;8172229;29;20414;-71
2022/04/28 17:42:26;;;;;;;0.90;0.90;;;;;;;19.33;33.18;100163.69;8166041;29;20437;-71
2022/04/28 17:46:27;;;;;;;1.15;0.70;;;;;;;19.14;33.34;100171.25;8166681;29;20043;-71
2022/04/28 17:50:29;;;;;;;1.23;0.80;;;;;;;18.96;34.04;100171.72;8164202;29;20044;-71
2022/04/28 17:54:31;;;;;;;0.85;0.75;;;;;;;18.83;33.94;100165.91;8181885;28;20122;-72
2022/04/28 18:02:52;;;;;;;2.35;0.82;;;;;;;18.54;35.23;100177.16;8166837;29;20043;-73
2022/04/28 18:06:54;;;;;;;1.00;0.90;;;;;;;18.40;35.35;100181.88;8167117;29;20134;-73
2022/04/28 18:10:56;;;;;;;1.80;0.80;;;;;;;18.27;35.85;100186.53;8167084;28;20047;-73
2022/04/28 18:14:57;;;;;;;4.82;1.48;;;;;;;18.03;35.96;100185.34;8166852;28;20719;-73
2022/04/28 18:19:00;;;;;;;1.38;0.80;;;;;;;17.84;36.22;100202.41;8164649;29;20053;-72
2022/04/28 18:23:02;;;;;;;2.78;0.70;;;;;;;17.76;36.61;100212.19;8171299;28;20067;-72
2022/04/28 18:27:05;;;;;;;1.50;0.98;;;;;;;17.63;37.26;100211.56;8151726;29;20066;-73
2022/04/28 18:31:06;;;;;;;1.23;0.80;;;;;;;17.51;36.88;100210.03;8164367;29;20071;-73
2022/04/28 18:35:08;;;;;;;1.92;0.88;;;;;;;17.42;36.98;100214.59;8149531;28;20066;-73
2022/04/28 18:47:49;;;;;;;2.13;0.90;;;;;;;16.92;38.88;100222.50;8178142;28;20065;-72
2022/04/28 18:51:52;;;;;;;1.80;0.77;;;;;;;16.76;39.76;100228.88;8169706;28;20089;-72
2022/04/28 18:55:54;;;;;;;0.70;0.65;;;;;;;16.56;39.03;100229.16;8169316;29;20036;-72
2022/04/28 18:59:55;;;;;;;2.78;0.80;;;;;;;16.47;39.61;100241.53;8183162;28;20058;-72
2022/04/28 19:03:57;;;;;;;0.98;0.77;;;;;;;16.33;40.00;100234.72;8173698;28;20073;-72
2022/04/28 19:08:04;;;;;;;1.67;0.80;;;;;;;16.21;42.11;100241.91;8184665;28;20078;-72
2022/04/28 19:12:06;;;;;;;3.72;0.70;;;;;;;15.91;44.84;100251.03;8170882;28;20051;-72
2022/04/28 19:16:08;;;;;;;;;;;;;;;15.63;43.05;100253.13;8186010;28;20138;-72
2022/04/28 19:20:10;;;;;;;1.58;0.70;;;;;;;15.45;44.27;100267.25;8181972;28;20460;-71
2022/04/28 19:24:12;;;;;;;1.30;0.90;;;;;;;15.26;45.95;100266.56;8167117;28;20082;-72
2022/04/28 19:28:13;;;;;;;2.15;0.70;;;;;;;15.03;46.82;100264.13;8170960;28;21139;-71
2022/04/28 19:32:15;;;;;;;0.93;0.63;;;;;;;14.75;49.41;100270.47;8184438;28;20488;-71
2022/04/28 19:36:17;;;;;;;6.10;1.08;;;;;;;14.58;50.11;100282.78;8186380;28;20059;-72
2022/04/28 19:40:19;;;;;;;5.13;0.65;;;;;;;14.39;50.75;100282.00;8190034;28;20047;-73
2022/04/28 19:44:21;;;;;;;1.33;0.80;;;;;;;14.15;51.12;100283.81;8189589;28;20126;-71
2022/04/28 19:48:23;;;;;;;;;;;;;;;14.01;51.90;100290.00;8185596;28;20057;-71
2022/04/28 19:52:24;;;;;;;0.75;0.70;;;;;;;13.84;52.63;100283.09;8186462;28;19926;-71